Cetus — WDJ5269 — position and weather

sailwx.info

Track history (hours):
 
Tides and Currents Weather Stations Pressure Air Temp Water Temp Dewpoint Dewpoint Depression Visibility Wind Speed Wind Dir Waves Ship Positions

Cetus

Owner: San Francisco Bay Area Water Emergency Transportation Authorithy, San Francisco, CA. More information available from US FCC via Universal Licensing System and Coast Guard Vessel Documentation Center.

Last reported at 2018-Jun-24 20:00 UTC. Time now 2018-Jun-24 20:24 UTC.
Position N 37°49' W 122°25'.

Length 41 m; draft 2 m.

Type: Passenger vessel. MMSI: 367786010.

Date/timePositionNaut miles runAvg speedWind from/ knotsBaromVisibWave heightAir tempDewpointWater temp
2018-Jun-24 20:00N 37°49' W 122°25'0 0.0
2018-Jun-24 19:30N 37°49' W 122°25'0 0.0
2018-Jun-24 19:00N 37°49' W 122°25'1 2.6
2018-Jun-24 18:30N 37°48' W 122°24'510.6
2018-Jun-24 18:00N 37°48' W 122°17'1 1.8
2018-Jun-24 17:30N 37°47' W 122°18'611.0
2018-Jun-24 17:00N 37°49' W 122°25'0 0.4
2018-Jun-24 16:31N 37°49' W 122°25'612.5
2018-Jun-24 16:01N 37°48' W 122°17'612.5
2018-Jun-24 15:30N 37°49' W 122°25'0 0.0
2018-Jun-24 06:27N 37°49' W 122°25'614.3
2018-Jun-24 06:00N 37°48' W 122°17'510.8
2018-Jun-24 05:31N 37°48' W 122°24'1 2.6
2018-Jun-24 05:01N 37°49' W 122°24'612.2
2018-Jun-24 04:30N 37°48' W 122°17'4 7.3
2018-Jun-24 04:00N 37°48' W 122°21'3 5.6
2018-Jun-24 03:30N 37°49' W 122°25'612.6
2018-Jun-24 03:00N 37°48' W 122°17'2 3.3
2018-Jun-24 02:30N 37°48' W 122°19'5 9.4
2018-Jun-24 02:01N 37°49' W 122°25'0 0.0
2018-Jun-24 01:30N 37°49' W 122°25'0 0.9
2018-Jun-24 01:00N 37°49' W 122°24'5 9.4
2018-Jun-24 00:30N 37°48' W 122°19'1 1.4
2018-Jun-24 00:01N 37°47' W 122°18'5 9.1
2018-Jun-23 23:30N 37°48' W 122°24'2 3.1
2018-Jun-23 23:00N 37°49' W 122°25'0 0.5
2018-Jun-23 22:30N 37°49' W 122°25'0 0.0
2018-Jun-23 22:00N 37°49' W 122°25'1 2.2
2018-Jun-23 21:31N 37°48' W 122°23'510.5
2018-Jun-23 21:00N 37°48' W 122°17'2 3.6
2018-Jun-23 20:31N 37°48' W 122°19'5 9.0
2018-Jun-23 20:00N 37°49' W 122°25'0 0.0
2018-Jun-23 19:30N 37°49' W 122°25'0 0.0
2018-Jun-23 19:00N 37°49' W 122°25'1 2.6
2018-Jun-23 18:30N 37°48' W 122°24'510.7
2018-Jun-23 18:01N 37°48' W 122°17'1 2.3
2018-Jun-23 17:30N 37°48' W 122°18'510.3
2018-Jun-23 17:00N 37°49' W 122°25'0 0.4
2018-Jun-23 16:30N 37°49' W 122°25'612.1
2018-Jun-23 16:00N 37°48' W 122°17'612.1
2018-Jun-23 15:30N 37°49' W 122°25'0 0.0
2018-Jun-23 15:00N 37°49' W 122°25'0 0.0
2018-Jun-23 05:27N 37°49' W 122°25'614.2
2018-Jun-23 05:00N 37°48' W 122°17'510.6
2018-Jun-23 04:30N 37°48' W 122°24'4 7.4
2018-Jun-23 04:01N 37°48' W 122°19'2 3.3
2018-Jun-23 03:30N 37°48' W 122°17'0 0.0
2018-Jun-23 03:00N 37°48' W 122°17'0 0.0
2018-Jun-23 02:30N 37°48' W 122°17'510.5
2018-Jun-23 02:00N 37°48' W 122°23'510.5
2018-Jun-23 01:30N 37°48' W 122°17'1 2.0
2018-Jun-23 01:00N 37°47' W 122°18'4 7.7
2018-Jun-23 00:30N 37°48' W 122°23'4 8.4
2018-Jun-23 00:00N 37°48' W 122°18'5 9.3
2018-Jun-22 23:30N 37°48' W 122°24'510.6
2018-Jun-22 23:00N 37°48' W 122°17'2 4.4
2018-Jun-22 22:30N 37°48' W 122°20'2 3.1
2018-Jun-22 22:00N 37°48' W 122°22'3 6.3
2018-Jun-22 21:30N 37°47' W 122°18'5 9.3
2018-Jun-22 21:01N 37°48' W 122°24'1 2.6
2018-Jun-22 20:30N 37°49' W 122°25'0 0.0
2018-Jun-22 20:00N 37°49' W 122°25'0 0.0
2018-Jun-22 19:30N 37°49' W 122°25'0 0.0
2018-Jun-22 19:00N 37°49' W 122°25'0 0.0
2018-Jun-22 18:30N 37°49' W 122°25'1 1.8
2018-Jun-22 18:00N 37°48' W 122°24'0 0.0
2018-Jun-22 17:30N 37°48' W 122°24'0 0.0
2018-Jun-22 17:00N 37°48' W 122°24'0 0.0
2018-Jun-22 16:31N 37°48' W 122°24'3 5.1
2018-Jun-22 16:01N 37°48' W 122°21'3 6.0
2018-Jun-22 15:30N 37°48' W 122°17'510.6
2018-Jun-22 15:01N 37°48' W 122°23'510.3
2018-Jun-22 14:30N 37°48' W 122°17'510.6
2018-Jun-22 14:00N 37°48' W 122°24'510.8
2018-Jun-22 13:30N 37°48' W 122°17'2 4.6
2018-Jun-22 13:01N 37°48' W 122°20'4 8.1
2018-Jun-22 12:30N 37°49' W 122°25'0 0.0
2018-Jun-22 05:30N 37°49' W 122°25'613.0
2018-Jun-22 05:00N 37°48' W 122°17'510.6
2018-Jun-22 04:30N 37°48' W 122°24'4 8.5
2018-Jun-22 04:00N 37°48' W 122°18'1 2.2
2018-Jun-22 03:30N 37°48' W 122°17'0 0.0
2018-Jun-22 03:00N 37°48' W 122°17'0 0.0
2018-Jun-22 02:30N 37°48' W 122°17'4 7.9
2018-Jun-22 02:01N 37°48' W 122°22'4 7.6
2018-Jun-22 01:30N 37°48' W 122°17'1 1.7
2018-Jun-22 01:01N 37°47' W 122°18'4 8.4
2018-Jun-22 00:30N 37°48' W 122°23'510.1
2018-Jun-22 00:01N 37°48' W 122°17'510.3
2018-Jun-21 23:30N 37°48' W 122°24'3 5.5
2018-Jun-21 23:00N 37°48' W 122°20'2 4.0
2018-Jun-21 22:31N 37°47' W 122°18'5 9.2
2018-Jun-21 22:00N 37°48' W 122°24'1 2.7
2018-Jun-21 21:31N 37°49' W 122°25'612.3
2018-Jun-21 21:00N 37°48' W 122°17'1 1.0
2018-Jun-21 20:30N 37°47' W 122°18'0 0.7
2018-Jun-21 20:01N 37°48' W 122°17'612.1
2018-Jun-21 19:31N 37°49' W 122°25'1 2.7
2018-Jun-21 19:01N 37°48' W 122°23'5 9.0
2018-Jun-21 18:30N 37°47' W 122°18'5 9.3
2018-Jun-21 18:00N 37°48' W 122°23'1 2.6
2018-Jun-21 17:30N 37°49' W 122°25'0 0.0
2018-Jun-21 17:00N 37°49' W 122°25'0 0.0
2018-Jun-21 16:30N 37°49' W 122°25'3 6.3
2018-Jun-21 16:01N 37°48' W 122°21'3 6.5
2018-Jun-21 15:30N 37°48' W 122°17'510.1
2018-Jun-21 15:01N 37°48' W 122°23'510.0
2018-Jun-21 14:31N 37°48' W 122°17'510.6
2018-Jun-21 14:00N 37°48' W 122°24'510.5
2018-Jun-21 13:30N 37°48' W 122°17'4 7.3
2018-Jun-21 13:00N 37°48' W 122°21'3 5.4
2018-Jun-21 12:30N 37°49' W 122°25'0 0.0
2018-Jun-21 05:26N 37°49' W 122°25'614.7
2018-Jun-21 05:00N 37°48' W 122°17'510.6
2018-Jun-21 04:30N 37°48' W 122°24'4 8.5
2018-Jun-21 04:00N 37°48' W 122°18'1 2.1
2018-Jun-21 03:30N 37°48' W 122°17'0 0.0
2018-Jun-21 03:01N 37°48' W 122°17'0 0.0
2018-Jun-21 02:30N 37°48' W 122°17'4 8.3
2018-Jun-21 02:00N 37°48' W 122°22'4 7.5
2018-Jun-21 01:30N 37°48' W 122°17'0 0.9
2018-Jun-21 01:00N 37°47' W 122°18'4 8.8
2018-Jun-21 00:31N 37°48' W 122°23'5 9.6
2018-Jun-21 00:00N 37°48' W 122°17'510.0
2018-Jun-20 23:30N 37°48' W 122°24'4 7.3
2018-Jun-20 23:00N 37°48' W 122°19'1 2.0
2018-Jun-20 22:30N 37°47' W 122°18'5 9.1
2018-Jun-20 22:00N 37°48' W 122°24'1 2.8
2018-Jun-20 21:31N 37°49' W 122°24'612.0
2018-Jun-20 21:00N 37°48' W 122°17'1 1.1
2018-Jun-20 20:30N 37°47' W 122°18'0 1.0
2018-Jun-20 20:00N 37°48' W 122°18'510.6
2018-Jun-20 19:30N 37°49' W 122°25'3 6.0
2018-Jun-20 19:00N 37°48' W 122°21'3 5.4
2018-Jun-20 18:31N 37°47' W 122°18'4 8.9
2018-Jun-20 18:01N 37°48' W 122°23'1 2.6
2018-Jun-20 17:30N 37°49' W 122°25'0 0.0
2018-Jun-20 17:00N 37°49' W 122°25'0 0.0
2018-Jun-20 16:30N 37°49' W 122°25'4 7.2
2018-Jun-20 16:00N 37°48' W 122°20'2 4.4
2018-Jun-20 15:30N 37°48' W 122°17'3 7.1
2018-Jun-20 15:00N 37°48' W 122°22'4 7.9
2018-Jun-20 14:30N 37°48' W 122°17'510.6
2018-Jun-20 14:00N 37°48' W 122°24'510.4
2018-Jun-20 13:30N 37°48' W 122°17'3 6.3
2018-Jun-20 13:01N 37°48' W 122°21'3 6.6
2018-Jun-20 12:30N 37°49' W 122°25'0 0.0
2018-Jun-20 05:40N 37°49' W 122°25'0 0.0
2018-Jun-20 05:30N 37°49' W 122°25'612.6
2018-Jun-20 05:00N 37°48' W 122°17'510.7
2018-Jun-20 04:30N 37°48' W 122°24'4 7.8
2018-Jun-20 04:00N 37°48' W 122°19'1 2.9
2018-Jun-20 03:30N 37°48' W 122°17'0 0.0
2018-Jun-20 03:00N 37°48' W 122°17'0 0.0
2018-Jun-20 02:30N 37°48' W 122°17'4 8.6
2018-Jun-20 02:00N 37°48' W 122°22'4 7.8
2018-Jun-20 01:30N 37°48' W 122°17'0 0.7
2018-Jun-20 01:00N 37°47' W 122°18'4 9.0
2018-Jun-20 00:31N 37°48' W 122°23'510.5
2018-Jun-20 00:00N 37°48' W 122°17'510.4
2018-Jun-19 23:30N 37°48' W 122°24'3 7.0
2018-Jun-19 23:01N 37°48' W 122°19'1 2.6
2018-Jun-19 22:31N 37°47' W 122°18'5 9.2
2018-Jun-19 22:00N 37°48' W 122°24'1 2.7
2018-Jun-19 21:30N 37°49' W 122°25'612.3
2018-Jun-19 21:00N 37°48' W 122°17'1 1.0
2018-Jun-19 20:30N 37°47' W 122°18'0 0.7
2018-Jun-19 20:01N 37°48' W 122°17'612.1
2018-Jun-19 19:30N 37°49' W 122°25'1 2.8
2018-Jun-19 19:01N 37°48' W 122°23'4 8.9
2018-Jun-19 18:30N 37°47' W 122°18'5 9.4
2018-Jun-19 18:00N 37°48' W 122°24'1 2.6
2018-Jun-19 17:30N 37°49' W 122°25'0 0.0
2018-Jun-19 17:00N 37°49' W 122°25'0 0.0
2018-Jun-19 16:30N 37°49' W 122°25'4 7.6
2018-Jun-19 16:01N 37°48' W 122°20'3 5.1
2018-Jun-19 15:31N 37°48' W 122°17'5 9.0
2018-Jun-19 15:01N 37°48' W 122°23'5 9.0
2018-Jun-19 14:30N 37°48' W 122°17'510.7
2018-Jun-19 14:00N 37°48' W 122°24'510.2
2018-Jun-19 13:29N 37°48' W 122°17'510.6
2018-Jun-19 13:00N 37°48' W 122°23'  
2018-Jun-16 02:52N 37°48' W 122°24'0 0.0
2018-Jun-16 02:30N 37°48' W 122°24'4 9.1
2018-Jun-16 02:01N 37°48' W 122°18'0 1.0
2018-Jun-16 01:30N 37°47' W 122°18'5 9.0
2018-Jun-16 00:59N 37°48' W 122°24'511.0
2018-Jun-16 00:30N 37°48' W 122°17'0 0.0
2018-Jun-16 00:00N 37°48' W 122°17'3 6.6
2018-Jun-15 23:31N 37°48' W 122°21'3 6.2
2018-Jun-15 23:00N 37°49' W 122°25'1 0.2
2018-Jun-15 17:12N 37°48' W 122°24'0 1.2
2018-Jun-15 17:00N 37°48' W 122°24'5 9.3
2018-Jun-15 16:31N 37°47' W 122°18'0 0.8
2018-Jun-15 16:01N 37°48' W 122°17'4 7.7
2018-Jun-15 15:30N 37°48' W 122°22'3 6.7
2018-Jun-15 15:00N 37°48' W 122°18'4 8.2
2018-Jun-15 14:30N 37°48' W 122°23'510.0
2018-Jun-15 14:00N 37°48' W 122°17'4 8.6
2018-Jun-15 13:31N 37°48' W 122°22'4 7.1
2018-Jun-15 13:00N 37°47' W 122°18'4 8.9
2018-Jun-15 12:31N 37°48' W 122°23'1 2.4
2018-Jun-15 12:00N 37°49' W 122°25'0 0.0
2018-Jun-15 03:59N 37°49' W 122°25'3 7.0
2018-Jun-15 03:30N 37°48' W 122°21'2 4.7
2018-Jun-15 03:01N 37°48' W 122°18'5 9.3
2018-Jun-15 02:30N 37°48' W 122°24'5 8.9
2018-Jun-15 01:58N 37°48' W 122°17'5 9.4
2018-Jun-15 01:27N 37°48' W 122°24'511.8
2018-Jun-15 01:00N 37°48' W 122°17'2 3.7
2018-Jun-15 00:30N 37°48' W 122°19'3 6.9
2018-Jun-15 00:01N 37°48' W 122°24'510.6
2018-Jun-14 23:30N 37°48' W 122°17'1 1.4
2018-Jun-14 23:00N 37°47' W 122°18'611.4
2018-Jun-14 22:30N 37°49' W 122°25'0 0.0
2018-Jun-14 22:00N 37°49' W 122°25'0 0.0
2018-Jun-14 21:30N 37°49' W 122°25'0 0.0
2018-Jun-14 21:00N 37°49' W 122°25'0 0.0
2018-Jun-14 20:30N 37°49' W 122°25'  
Track history (hours):
 
Tides and Currents Weather Stations Pressure Air Temp Water Temp Dewpoint Dewpoint Depression Visibility Wind Speed Wind Dir Waves Ship Positions

Cetus

Owner: San Francisco Bay Area Water Emergency Transportation Authorithy, San Francisco, CA. More information available from US FCC via Universal Licensing System and Coast Guard Vessel Documentation Center.

Last reported at 2018-Jun-24 20:00 UTC. Time now 2018-Jun-24 20:24 UTC.
Position N 37°49' W 122°25'.

Length 41 m; draft 2 m.

Type: Passenger vessel. MMSI: 367786010.

Date/timePositionNaut miles runAvg speedWind from/ knotsBaromVisibWave heightAir tempDewpointWater temp
2018-Jun-24 20:00N 37°49' W 122°25'0 0.0
2018-Jun-24 19:30N 37°49' W 122°25'0 0.0
2018-Jun-24 19:00N 37°49' W 122°25'1 2.6
2018-Jun-24 18:30N 37°48' W 122°24'510.6
2018-Jun-24 18:00N 37°48' W 122°17'1 1.8
2018-Jun-24 17:30N 37°47' W 122°18'611.0
2018-Jun-24 17:00N 37°49' W 122°25'0 0.4
2018-Jun-24 16:31N 37°49' W 122°25'612.5
2018-Jun-24 16:01N 37°48' W 122°17'612.5
2018-Jun-24 15:30N 37°49' W 122°25'0 0.0
2018-Jun-24 06:27N 37°49' W 122°25'614.3
2018-Jun-24 06:00N 37°48' W 122°17'510.8
2018-Jun-24 05:31N 37°48' W 122°24'1 2.6
2018-Jun-24 05:01N 37°49' W 122°24'612.2
2018-Jun-24 04:30N 37°48' W 122°17'4 7.3
2018-Jun-24 04:00N 37°48' W 122°21'3 5.6
2018-Jun-24 03:30N 37°49' W 122°25'612.6
2018-Jun-24 03:00N 37°48' W 122°17'2 3.3
2018-Jun-24 02:30N 37°48' W 122°19'5 9.4
2018-Jun-24 02:01N 37°49' W 122°25'0 0.0
2018-Jun-24 01:30N 37°49' W 122°25'0 0.9
2018-Jun-24 01:00N 37°49' W 122°24'5 9.4
2018-Jun-24 00:30N 37°48' W 122°19'1 1.4
2018-Jun-24 00:01N 37°47' W 122°18'5 9.1
2018-Jun-23 23:30N 37°48' W 122°24'2 3.1
2018-Jun-23 23:00N 37°49' W 122°25'0 0.5
2018-Jun-23 22:30N 37°49' W 122°25'0 0.0
2018-Jun-23 22:00N 37°49' W 122°25'1 2.2
2018-Jun-23 21:31N 37°48' W 122°23'510.5
2018-Jun-23 21:00N 37°48' W 122°17'2 3.6
2018-Jun-23 20:31N 37°48' W 122°19'5 9.0
2018-Jun-23 20:00N 37°49' W 122°25'0 0.0
2018-Jun-23 19:30N 37°49' W 122°25'0 0.0
2018-Jun-23 19:00N 37°49' W 122°25'1 2.6
2018-Jun-23 18:30N 37°48' W 122°24'510.7
2018-Jun-23 18:01N 37°48' W 122°17'1 2.3
2018-Jun-23 17:30N 37°48' W 122°18'510.3
2018-Jun-23 17:00N 37°49' W 122°25'0 0.4
2018-Jun-23 16:30N 37°49' W 122°25'612.1
2018-Jun-23 16:00N 37°48' W 122°17'612.1
2018-Jun-23 15:30N 37°49' W 122°25'0 0.0
2018-Jun-23 15:00N 37°49' W 122°25'0 0.0
2018-Jun-23 05:27N 37°49' W 122°25'614.2
2018-Jun-23 05:00N 37°48' W 122°17'510.6
2018-Jun-23 04:30N 37°48' W 122°24'4 7.4
2018-Jun-23 04:01N 37°48' W 122°19'2 3.3
2018-Jun-23 03:30N 37°48' W 122°17'0 0.0
2018-Jun-23 03:00N 37°48' W 122°17'0 0.0
2018-Jun-23 02:30N 37°48' W 122°17'510.5
2018-Jun-23 02:00N 37°48' W 122°23'510.5
2018-Jun-23 01:30N 37°48' W 122°17'1 2.0
2018-Jun-23 01:00N 37°47' W 122°18'4 7.7
2018-Jun-23 00:30N 37°48' W 122°23'4 8.4
2018-Jun-23 00:00N 37°48' W 122°18'5 9.3
2018-Jun-22 23:30N 37°48' W 122°24'510.6
2018-Jun-22 23:00N 37°48' W 122°17'2 4.4
2018-Jun-22 22:30N 37°48' W 122°20'2 3.1
2018-Jun-22 22:00N 37°48' W 122°22'3 6.3
2018-Jun-22 21:30N 37°47' W 122°18'5 9.3
2018-Jun-22 21:01N 37°48' W 122°24'1 2.6
2018-Jun-22 20:30N 37°49' W 122°25'0 0.0
2018-Jun-22 20:00N 37°49' W 122°25'0 0.0
2018-Jun-22 19:30N 37°49' W 122°25'0 0.0
2018-Jun-22 19:00N 37°49' W 122°25'0 0.0
2018-Jun-22 18:30N 37°49' W 122°25'1 1.8
2018-Jun-22 18:00N 37°48' W 122°24'0 0.0
2018-Jun-22 17:30N 37°48' W 122°24'0 0.0
2018-Jun-22 17:00N 37°48' W 122°24'0 0.0
2018-Jun-22 16:31N 37°48' W 122°24'3 5.1
2018-Jun-22 16:01N 37°48' W 122°21'3 6.0
2018-Jun-22 15:30N 37°48' W 122°17'510.6
2018-Jun-22 15:01N 37°48' W 122°23'510.3
2018-Jun-22 14:30N 37°48' W 122°17'510.6
2018-Jun-22 14:00N 37°48' W 122°24'510.8
2018-Jun-22 13:30N 37°48' W 122°17'2 4.6
2018-Jun-22 13:01N 37°48' W 122°20'4 8.1
2018-Jun-22 12:30N 37°49' W 122°25'0 0.0
2018-Jun-22 05:30N 37°49' W 122°25'613.0
2018-Jun-22 05:00N 37°48' W 122°17'510.6
2018-Jun-22 04:30N 37°48' W 122°24'4 8.5
2018-Jun-22 04:00N 37°48' W 122°18'1 2.2
2018-Jun-22 03:30N 37°48' W 122°17'0 0.0
2018-Jun-22 03:00N 37°48' W 122°17'0 0.0
2018-Jun-22 02:30N 37°48' W 122°17'4 7.9
2018-Jun-22 02:01N 37°48' W 122°22'4 7.6
2018-Jun-22 01:30N 37°48' W 122°17'1 1.7
2018-Jun-22 01:01N 37°47' W 122°18'4 8.4
2018-Jun-22 00:30N 37°48' W 122°23'510.1
2018-Jun-22 00:01N 37°48' W 122°17'510.3
2018-Jun-21 23:30N 37°48' W 122°24'3 5.5
2018-Jun-21 23:00N 37°48' W 122°20'2 4.0
2018-Jun-21 22:31N 37°47' W 122°18'5 9.2
2018-Jun-21 22:00N 37°48' W 122°24'1 2.7
2018-Jun-21 21:31N 37°49' W 122°25'612.3
2018-Jun-21 21:00N 37°48' W 122°17'1 1.0
2018-Jun-21 20:30N 37°47' W 122°18'0 0.7
2018-Jun-21 20:01N 37°48' W 122°17'612.1
2018-Jun-21 19:31N 37°49' W 122°25'1 2.7
2018-Jun-21 19:01N 37°48' W 122°23'5 9.0
2018-Jun-21 18:30N 37°47' W 122°18'5 9.3
2018-Jun-21 18:00N 37°48' W 122°23'1 2.6
2018-Jun-21 17:30N 37°49' W 122°25'0 0.0
2018-Jun-21 17:00N 37°49' W 122°25'0 0.0
2018-Jun-21 16:30N 37°49' W 122°25'3 6.3
2018-Jun-21 16:01N 37°48' W 122°21'3 6.5
2018-Jun-21 15:30N 37°48' W 122°17'510.1
2018-Jun-21 15:01N 37°48' W 122°23'510.0
2018-Jun-21 14:31N 37°48' W 122°17'510.6
2018-Jun-21 14:00N 37°48' W 122°24'510.5
2018-Jun-21 13:30N 37°48' W 122°17'4 7.3
2018-Jun-21 13:00N 37°48' W 122°21'3 5.4
2018-Jun-21 12:30N 37°49' W 122°25'0 0.0
2018-Jun-21 05:26N 37°49' W 122°25'614.7
2018-Jun-21 05:00N 37°48' W 122°17'510.6
2018-Jun-21 04:30N 37°48' W 122°24'4 8.5
2018-Jun-21 04:00N 37°48' W 122°18'1 2.1
2018-Jun-21 03:30N 37°48' W 122°17'0 0.0
2018-Jun-21 03:01N 37°48' W 122°17'0 0.0
2018-Jun-21 02:30N 37°48' W 122°17'4 8.3
2018-Jun-21 02:00N 37°48' W 122°22'4 7.5
2018-Jun-21 01:30N 37°48' W 122°17'0 0.9
2018-Jun-21 01:00N 37°47' W 122°18'4 8.8
2018-Jun-21 00:31N 37°48' W 122°23'5 9.6
2018-Jun-21 00:00N 37°48' W 122°17'510.0
2018-Jun-20 23:30N 37°48' W 122°24'4 7.3
2018-Jun-20 23:00N 37°48' W 122°19'1 2.0
2018-Jun-20 22:30N 37°47' W 122°18'5 9.1
2018-Jun-20 22:00N 37°48' W 122°24'1 2.8
2018-Jun-20 21:31N 37°49' W 122°24'612.0
2018-Jun-20 21:00N 37°48' W 122°17'1 1.1
2018-Jun-20 20:30N 37°47' W 122°18'0 1.0
2018-Jun-20 20:00N 37°48' W 122°18'510.6
2018-Jun-20 19:30N 37°49' W 122°25'3 6.0
2018-Jun-20 19:00N 37°48' W 122°21'3 5.4
2018-Jun-20 18:31N 37°47' W 122°18'4 8.9
2018-Jun-20 18:01N 37°48' W 122°23'1 2.6
2018-Jun-20 17:30N 37°49' W 122°25'0 0.0
2018-Jun-20 17:00N 37°49' W 122°25'0 0.0
2018-Jun-20 16:30N 37°49' W 122°25'4 7.2
2018-Jun-20 16:00N 37°48' W 122°20'2 4.4
2018-Jun-20 15:30N 37°48' W 122°17'3 7.1
2018-Jun-20 15:00N 37°48' W 122°22'4 7.9
2018-Jun-20 14:30N 37°48' W 122°17'510.6
2018-Jun-20 14:00N 37°48' W 122°24'510.4
2018-Jun-20 13:30N 37°48' W 122°17'3 6.3
2018-Jun-20 13:01N 37°48' W 122°21'3 6.6
2018-Jun-20 12:30N 37°49' W 122°25'0 0.0
2018-Jun-20 05:40N 37°49' W 122°25'0 0.0
2018-Jun-20 05:30N 37°49' W 122°25'612.6
2018-Jun-20 05:00N 37°48' W 122°17'510.7
2018-Jun-20 04:30N 37°48' W 122°24'4 7.8
2018-Jun-20 04:00N 37°48' W 122°19'1 2.9
2018-Jun-20 03:30N 37°48' W 122°17'0 0.0
2018-Jun-20 03:00N 37°48' W 122°17'0 0.0
2018-Jun-20 02:30N 37°48' W 122°17'4 8.6
2018-Jun-20 02:00N 37°48' W 122°22'4 7.8
2018-Jun-20 01:30N 37°48' W 122°17'0 0.7
2018-Jun-20 01:00N 37°47' W 122°18'4 9.0
2018-Jun-20 00:31N 37°48' W 122°23'510.5
2018-Jun-20 00:00N 37°48' W 122°17'510.4
2018-Jun-19 23:30N 37°48' W 122°24'3 7.0
2018-Jun-19 23:01N 37°48' W 122°19'1 2.6
2018-Jun-19 22:31N 37°47' W 122°18'5 9.2
2018-Jun-19 22:00N 37°48' W 122°24'1 2.7
2018-Jun-19 21:30N 37°49' W 122°25'612.3
2018-Jun-19 21:00N 37°48' W 122°17'1 1.0
2018-Jun-19 20:30N 37°47' W 122°18'0 0.7
2018-Jun-19 20:01N 37°48' W 122°17'612.1
2018-Jun-19 19:30N 37°49' W 122°25'1 2.8
2018-Jun-19 19:01N 37°48' W 122°23'4 8.9
2018-Jun-19 18:30N 37°47' W 122°18'5 9.4
2018-Jun-19 18:00N 37°48' W 122°24'1 2.6
2018-Jun-19 17:30N 37°49' W 122°25'0 0.0
2018-Jun-19 17:00N 37°49' W 122°25'0 0.0
2018-Jun-19 16:30N 37°49' W 122°25'4 7.6
2018-Jun-19 16:01N 37°48' W 122°20'3 5.1
2018-Jun-19 15:31N 37°48' W 122°17'5 9.0
2018-Jun-19 15:01N 37°48' W 122°23'5 9.0
2018-Jun-19 14:30N 37°48' W 122°17'510.7
2018-Jun-19 14:00N 37°48' W 122°24'510.2
2018-Jun-19 13:29N 37°48' W 122°17'510.6
2018-Jun-19 13:00N 37°48' W 122°23'  
2018-Jun-16 02:52N 37°48' W 122°24'0 0.0
2018-Jun-16 02:30N 37°48' W 122°24'4 9.1
2018-Jun-16 02:01N 37°48' W 122°18'0 1.0
2018-Jun-16 01:30N 37°47' W 122°18'5 9.0
2018-Jun-16 00:59N 37°48' W 122°24'511.0
2018-Jun-16 00:30N 37°48' W 122°17'0 0.0
2018-Jun-16 00:00N 37°48' W 122°17'3 6.6
2018-Jun-15 23:31N 37°48' W 122°21'3 6.2
2018-Jun-15 23:00N 37°49' W 122°25'1 0.2
2018-Jun-15 17:12N 37°48' W 122°24'0 1.2
2018-Jun-15 17:00N 37°48' W 122°24'5 9.3
2018-Jun-15 16:31N 37°47' W 122°18'0 0.8
2018-Jun-15 16:01N 37°48' W 122°17'4 7.7
2018-Jun-15 15:30N 37°48' W 122°22'3 6.7
2018-Jun-15 15:00N 37°48' W 122°18'4 8.2
2018-Jun-15 14:30N 37°48' W 122°23'510.0
2018-Jun-15 14:00N 37°48' W 122°17'4 8.6
2018-Jun-15 13:31N 37°48' W 122°22'4 7.1
2018-Jun-15 13:00N 37°47' W 122°18'4 8.9
2018-Jun-15 12:31N 37°48' W 122°23'1 2.4
2018-Jun-15 12:00N 37°49' W 122°25'0 0.0
2018-Jun-15 03:59N 37°49' W 122°25'3 7.0
2018-Jun-15 03:30N 37°48' W 122°21'2 4.7
2018-Jun-15 03:01N 37°48' W 122°18'5 9.3
2018-Jun-15 02:30N 37°48' W 122°24'5 8.9
2018-Jun-15 01:58N 37°48' W 122°17'5 9.4
2018-Jun-15 01:27N 37°48' W 122°24'511.8
2018-Jun-15 01:00N 37°48' W 122°17'2 3.7
2018-Jun-15 00:30N 37°48' W 122°19'3 6.9
2018-Jun-15 00:01N 37°48' W 122°24'510.6
2018-Jun-14 23:30N 37°48' W 122°17'1 1.4
2018-Jun-14 23:00N 37°47' W 122°18'611.4
2018-Jun-14 22:30N 37°49' W 122°25'0 0.0
2018-Jun-14 22:00N 37°49' W 122°25'0 0.0
2018-Jun-14 21:30N 37°49' W 122°25'0 0.0
2018-Jun-14 21:00N 37°49' W 122°25'0 0.0
2018-Jun-14 20:30N 37°49' W 122°25'  

Dump ship's entire track history